Impacts TAF Board INFO
FOR SITUATIONAL AWARENESS. NOT TO BE USED FOR FLIGHT PLANNING PURPOSES.
IDs:

KCLT - Charlotte/Douglas In, NC, US

Issued at 1947 UTC 19 Jan 2018
Updated at 2117 UTC 19 Jan 2018
Potential Impact None Slight Moderate High
Time2052Z 19/22Z 19/23Z 20/00Z 20/01Z 20/02Z 20/03Z 20/04Z 20/05Z 20/06Z 20/07Z 20/08Z 20/09Z 20/10Z>>
Type OBS PRVL PRVL PRVL PRVL PRVL PRVL PRVL PRVL PRVL PRVL PRVL PRVL PRVL
VIS 10 >6 >6 >6 >6 >6 >6 >6 >6 >6 >6 >6 >6 >6
CIG -- -- -- -- -- -- -- -- -- -- -- -- -- --
Cover FEW SKC SKC SKC FEW FEW FEW FEW FEW FEW FEW FEW FEW FEW
FltCat VFR VFR VFR VFR VFR VFR VFR VFR VFR VFR VFR VFR VFR VFR
WX -- -- -- -- -- -- -- -- -- -- -- -- -- --
WDir 170 240 240 240 220 220 220 220 220 220 220 220 220 220
WSpd 4 4 4 4 2 2 2 2 2 2 2 2 2 2
WGst -- -- -- -- -- -- -- -- -- -- -- -- -- --

Raw TAF
KCLT 191947Z 1920/2024 24004KT P6SM SKC
  FM200100 22002KT P6SM FEW250
  FM201400 25005KT P6SM SCT250


Raw METAR
KCLT 192052Z 17004KT 10SM FEW100 12/M07 A3016 RMK AO2 SLP218 T01171067 56013
KCLT 191952Z 29003KT 10SM FEW090 12/M07 A3017 RMK AO2 SLP218 T01221072
KCLT 191852Z 23003KT 10SM CLR 11/M07 A3018 RMK AO2 SLP224 T01061072

METAR Board
Radar Display
Forecast Discussion

FOR SITUATIONAL AWARENESS. NOT TO BE USED FOR FLIGHT PLANNING PURPOSES.